Time;durP1;ratioP1;P1;durP2;ratioP2;P2;SDS_P1;SDS_P2;PMS_P1;PMS_P2;Temp;Humidity;BMP_temperature;BMP_pressure;BME280_temperature;BME280_humidity;BME280_pressure;Samples;Min_cycle;Max_cycle;Signal;HPM_P1;HPM_P2
2022/01/23 00:01:52;;;;;;;10.30;7.60;;;4.60;99.90;;;;;;4633651;28;9999984;-78
2022/01/23 00:04:18;;;;;;;10.65;6.55;;;4.60;99.90;;;;;;4980012;28;20026;-78
2022/01/23 00:06:46;;;;;;;10.95;6.55;;;4.70;99.90;;;;;;4972540;28;20066;-78
2022/01/23 00:09:12;;;;;;;10.50;6.68;;;4.60;99.90;;;;;;4976402;28;20166;-78
2022/01/23 00:11:45;;;;;;;11.38;6.82;;;4.60;99.90;;;;;;4984483;28;20030;-78
2022/01/23 00:19:39;;;;;;;9.43;6.57;;;4.60;99.90;;;;;;4976031;28;20041;-78
2022/01/23 00:22:04;;;;;;;9.82;6.78;;;4.60;99.90;;;;;;4986519;28;20030;-78
2022/01/23 00:32:42;;;;;;;10.98;6.85;;;4.60;99.90;;;;;;4980936;28;20092;-79
2022/01/23 00:35:08;;;;;;;12.02;6.78;;;4.60;99.90;;;;;;4982206;28;20038;-78
2022/01/23 00:37:34;;;;;;;12.18;6.93;;;4.60;99.90;;;;;;4982606;28;20030;-79
2022/01/23 00:39:59;;;;;;;8.68;6.68;;;4.60;99.90;;;;;;4982810;28;20022;-78
2022/01/23 00:42:27;;;;;;;9.80;6.65;;;4.60;99.90;;;;;;4983276;28;20018;-78
2022/01/23 00:45:00;;;;;;;9.55;6.50;;;4.60;99.90;;;;;;4980503;28;20023;-78
2022/01/23 00:47:26;;;;;;;9.00;6.35;;;4.60;99.90;;;;;;4969589;28;20035;-78
2022/01/23 00:49:51;;;;;;;8.50;6.43;;;4.60;99.90;;;;;;4981350;28;20057;-78
2022/01/23 00:52:18;;;;;;;9.55;6.75;;;4.60;99.90;;;;;;4981619;28;20541;-78
2022/01/23 00:54:44;;;;;;;8.18;6.18;;;4.60;99.90;;;;;;4984503;28;20065;-78
2022/01/23 00:57:10;;;;;;;11.13;6.57;;;4.60;99.90;;;;;;4985488;28;20311;-78
2022/01/23 00:59:35;;;;;;;8.98;6.75;;;4.60;99.90;;;;;;4971678;28;20034;-78
2022/01/23 01:02:01;;;;;;;10.40;7.22;;;4.60;99.90;;;;;;4981258;28;20034;-78
2022/01/23 01:04:26;;;;;;;9.02;6.30;;;4.60;99.90;;;;;;4982446;28;20031;-78
2022/01/23 01:06:52;;;;;;;8.13;6.15;;;4.60;99.90;;;;;;4977199;28;20027;-78
2022/01/23 01:09:18;;;;;;;10.30;7.28;;;4.60;99.90;;;;;;4973358;28;20446;-78
2022/01/23 01:14:27;;;;;;;12.52;6.85;;;4.50;99.90;;;;;;4981521;28;20038;-78
2022/01/23 01:17:01;;;;;;;;;;;4.60;99.90;;;;;;4980226;28;20037;-78
2022/01/23 01:30:35;;;;;;;9.60;6.63;;;4.60;99.90;;;;;;4970019;28;20112;-78
2022/01/23 01:35:45;;;;;;;9.27;6.97;;;4.50;99.90;;;;;;4976785;28;20022;-78
2022/01/23 01:38:11;;;;;;;9.65;7.28;;;4.50;99.90;;;;;;4981493;28;20042;-78
2022/01/23 01:40:37;;;;;;;12.27;7.50;;;4.50;99.90;;;;;;4983657;28;20061;-78
2022/01/23 01:43:03;;;;;;;8.65;6.45;;;4.50;99.90;;;;;;4983930;28;20491;-78
2022/01/23 01:45:31;;;;;;;9.25;6.80;;;4.50;99.90;;;;;;4984449;28;20395;-78
2022/01/23 01:48:00;;;;;;;9.80;6.97;;;4.50;99.90;;;;;;4980722;28;20041;-78
2022/01/23 01:50:27;;;;;;;11.15;6.50;;;4.50;99.90;;;;;;4982009;28;20054;-78
2022/01/23 01:52:53;;;;;;;10.48;6.13;;;4.50;99.90;;;;;;4979490;28;20117;-78
2022/01/23 01:55:26;;;;;;;8.98;5.82;;;4.50;99.90;;;;;;4981015;28;20109;-78
2022/01/23 01:57:55;;;;;;;7.03;5.68;;;4.50;99.90;;;;;;4978516;28;20042;-79
2022/01/23 02:10:54;;;;;;;9.60;5.55;;;4.50;99.90;;;;;;4983015;28;20031;-79
2022/01/23 02:57:07;;;;;;;10.50;6.55;;;4.30;99.90;;;;;;4980107;28;20100;-77
2022/01/23 02:59:36;;;;;;;9.60;6.50;;;4.30;99.90;;;;;;4983537;28;20030;-77
2022/01/23 03:02:23;;;;;;;7.25;5.85;;;4.30;99.90;;;;;;4979716;28;20030;-77
2022/01/23 03:04:52;;;;;;;7.82;5.78;;;4.30;99.90;;;;;;4972726;28;20104;-77
2022/01/23 03:10:05;;;;;;;8.23;5.68;;;4.40;99.90;;;;;;4983963;28;20483;-77
2022/01/23 03:28:37;;;;;;;9.32;6.50;;;4.40;99.90;;;;;;4978453;28;20030;-76
2022/01/23 03:33:29;;;;;;;9.18;5.88;;;4.30;99.90;;;;;;4980262;28;20137;-76
2022/01/23 03:35:55;;;;;;;7.60;5.80;;;4.30;99.90;;;;;;4986255;28;20370;-76
2022/01/23 03:38:20;;;;;;;8.20;5.72;;;4.30;99.90;;;;;;4982544;28;21271;-76
2022/01/23 03:40:46;;;;;;;9.02;5.63;;;4.30;99.90;;;;;;4975262;28;20023;-76
2022/01/23 03:43:14;;;;;;;11.43;5.90;;;4.20;99.90;;;;;;4978976;28;20026;-78
2022/01/23 03:50:50;;;;;;;8.20;5.38;;;4.30;99.90;;;;;;4973761;28;20018;-78
2022/01/23 03:53:16;;;;;;;10.23;6.30;;;4.30;99.90;;;;;;4984478;28;20553;-78
2022/01/23 03:55:42;;;;;;;6.50;5.25;;;4.30;99.90;;;;;;4985457;28;20026;-77
2022/01/23 03:58:08;;;;;;;8.80;5.53;;;4.30;99.90;;;;;;4974811;28;20026;-78
2022/01/23 04:00:34;;;;;;;12.30;6.50;;;4.30;99.90;;;;;;4979897;28;20084;-77
2022/01/23 04:02:59;;;;;;;7.38;5.20;;;4.30;99.90;;;;;;4983424;28;20058;-78
2022/01/23 04:05:25;;;;;;;7.38;5.57;;;4.30;99.90;;;;;;4975642;28;20057;-78
2022/01/23 04:07:51;;;;;;;7.57;5.30;;;4.40;99.90;;;;;;4969904;28;20057;-78
2022/01/23 04:10:19;;;;;;;6.07;4.93;;;4.40;99.90;;;;;;4983830;28;20420;-75
2022/01/23 04:32:09;;;;;;;9.10;5.60;;;4.30;99.90;;;;;;4979605;28;20057;-78
2022/01/23 04:45:32;;;;;;;9.15;6.75;;;4.20;99.90;;;;;;4983997;28;20560;-78
2022/01/23 05:02:07;;;;;;;8.90;5.50;;;4.20;99.90;;;;;;4978241;28;20030;-78
2022/01/23 05:04:35;;;;;;;7.28;4.80;;;4.10;99.90;;;;;;4986527;28;20129;-78
2022/01/23 05:07:10;;;;;;;7.95;5.25;;;4.20;99.90;;;;;;4975522;28;20499;-78
2022/01/23 05:09:36;;;;;;;8.05;5.32;;;4.20;99.90;;;;;;4982053;28;20443;-78
2022/01/23 05:12:12;;;;;;;9.10;5.45;;;4.20;99.90;;;;;;4977329;28;20088;-77
2022/01/23 05:14:42;;;;;;;7.95;5.13;;;4.20;99.90;;;;;;4982681;28;20580;-78
2022/01/23 05:17:11;;;;;;;7.72;5.55;;;4.20;99.90;;;;;;4978243;28;20249;-78
2022/01/23 05:19:38;;;;;;;7.90;5.13;;;4.20;99.90;;;;;;4976356;28;20035;-78
2022/01/23 05:22:49;;;;;;;5.97;4.85;;;4.10;99.90;;;;;;4983745;28;20031;-78
2022/01/23 05:24:58;;;;;;;7.07;4.78;;;4.10;99.90;;;;;;4968087;28;20042;-78
2022/01/23 05:27:27;;;;;;;9.80;5.57;;;4.20;99.90;;;;;;4975172;28;20031;-78
2022/01/23 05:29:54;;;;;;;7.65;5.20;;;4.10;99.90;;;;;;4973334;28;20176;-78
2022/01/23 05:32:21;;;;;;;6.68;4.90;;;4.10;99.90;;;;;;4962041;28;20038;-78
2022/01/23 05:34:48;;;;;;;9.50;5.45;;;4.10;99.90;;;;;;4965818;28;20113;-79
2022/01/23 05:37:15;;;;;;;8.32;5.15;;;4.10;99.90;;;;;;4959791;28;20038;-78
2022/01/23 05:39:41;;;;;;;9.98;5.53;;;4.10;99.90;;;;;;4960072;28;20598;-78
2022/01/23 05:42:08;;;;;;;7.22;4.78;;;4.10;99.90;;;;;;4963806;28;20135;-78
2022/01/23 05:44:40;;;;;;;7.68;5.38;;;4.20;99.90;;;;;;4966530;28;20035;-78
2022/01/23 05:47:06;;;;;;;6.28;5.40;;;4.20;99.90;;;;;;4972282;28;20039;-78
2022/01/23 05:49:33;;;;;;;10.00;5.85;;;4.20;99.90;;;;;;4955657;28;20105;-78
2022/01/23 05:51:58;;;;;;;7.32;5.03;;;4.10;99.90;;;;;;4964484;28;20395;-78
2022/01/23 05:54:24;;;;;;;7.50;4.90;;;4.10;99.90;;;;;;4966109;28;20031;-78
2022/01/23 05:56:50;;;;;;;9.02;5.22;;;4.10;99.90;;;;;;4971598;28;20034;-78
2022/01/23 05:59:20;;;;;;;8.43;4.93;;;4.10;99.90;;;;;;4961217;28;20040;-78
2022/01/23 06:01:46;;;;;;;8.43;5.07;;;4.10;99.90;;;;;;4973829;28;20041;-77
2022/01/23 06:04:13;;;;;;;8.82;5.22;;;4.00;99.90;;;;;;4973840;28;20086;-78
2022/01/23 06:06:39;;;;;;;10.43;5.70;;;4.10;99.90;;;;;;4958113;28;20309;-78
2022/01/23 06:09:04;;;;;;;8.68;5.20;;;4.20;99.90;;;;;;4973439;28;20438;-77
2022/01/23 06:11:30;;;;;;;7.60;5.13;;;4.20;99.90;;;;;;4969906;28;20050;-78
2022/01/23 06:13:56;;;;;;;8.95;5.70;;;4.30;99.90;;;;;;4963251;28;20066;-78
2022/01/23 06:16:21;;;;;;;8.27;5.18;;;4.40;99.90;;;;;;4967214;28;20474;-78
2022/01/23 06:18:47;;;;;;;9.35;5.05;;;4.40;99.90;;;;;;4969184;28;20039;-78
2022/01/23 06:21:18;;;;;;;7.75;4.95;;;4.40;99.90;;;;;;4971495;28;20902;-78
2022/01/23 06:23:43;;;;;;;7.65;5.13;;;4.30;99.90;;;;;;4968837;28;20034;-78
2022/01/23 06:26:09;;;;;;;10.00;5.88;;;4.30;99.90;;;;;;4969111;28;20027;-77
2022/01/23 06:28:41;;;;;;;8.25;5.60;;;4.30;99.90;;;;;;4966889;28;20498;-78
2022/01/23 06:31:08;;;;;;;8.60;6.05;;;4.20;99.90;;;;;;4985729;28;20030;-78
2022/01/23 06:33:35;;;;;;;14.50;6.70;;;4.20;99.90;;;;;;4984561;28;20380;-77
2022/01/23 06:36:01;;;;;;;9.23;5.60;;;4.10;99.90;;;;;;4978908;28;20057;-77
2022/01/23 06:38:27;;;;;;;8.52;5.78;;;4.10;99.90;;;;;;4989408;28;20022;-78
2022/01/23 06:40:53;;;;;;;8.55;5.80;;;4.10;99.90;;;;;;4985622;28;20044;-78
2022/01/23 06:43:19;;;;;;;12.25;6.18;;;4.10;99.90;;;;;;4988828;28;20576;-78
2022/01/23 06:45:44;;;;;;;8.93;6.32;;;4.20;99.90;;;;;;4984401;28;20037;-78
2022/01/23 06:48:10;;;;;;;9.90;6.18;;;4.20;99.90;;;;;;4990895;28;20031;-78
2022/01/23 06:50:35;;;;;;;9.85;5.85;;;4.20;99.90;;;;;;4988426;28;20558;-78
2022/01/23 06:53:01;;;;;;;10.63;5.97;;;4.20;99.90;;;;;;4983312;28;20026;-78
2022/01/23 06:55:27;;;;;;;9.73;5.75;;;4.20;99.90;;;;;;4981515;28;20606;-78
2022/01/23 06:57:52;;;;;;;10.50;6.60;;;4.20;99.90;;;;;;4980497;28;20088;-78
2022/01/23 07:00:18;;;;;;;9.75;5.78;;;4.20;99.90;;;;;;4976249;28;20039;-78
2022/01/23 07:02:43;;;;;;;8.35;6.07;;;4.20;99.90;;;;;;4977131;28;20386;-78
2022/01/23 07:05:09;;;;;;;8.73;5.85;;;4.10;99.90;;;;;;4984205;28;20030;-78
2022/01/23 07:07:34;;;;;;;10.15;6.18;;;4.20;99.90;;;;;;4981588;28;20483;-78
2022/01/23 07:10:00;;;;;;;9.18;5.97;;;4.20;99.90;;;;;;4987461;28;20041;-78
2022/01/23 07:12:26;;;;;;;9.38;5.95;;;4.20;99.90;;;;;;4979094;28;20037;-78
2022/01/23 07:14:51;;;;;;;8.82;5.85;;;4.20;99.90;;;;;;4981287;28;20026;-78
2022/01/23 07:17:17;;;;;;;11.13;6.47;;;4.10;99.90;;;;;;4981373;28;20092;-78
2022/01/23 07:19:42;;;;;;;11.02;6.32;;;4.10;99.90;;;;;;4981076;28;20125;-76
2022/01/23 07:22:08;;;;;;;8.32;5.57;;;4.10;99.90;;;;;;4982939;28;20109;-79
2022/01/23 07:24:34;;;;;;;9.20;6.40;;;4.10;99.90;;;;;;4293270;28;10001446;-80
2022/01/23 07:27:02;;;;;;;7.25;5.65;;;4.10;99.90;;;;;;4991570;28;20045;-80
2022/01/23 07:29:27;;;;;;;11.73;6.50;;;4.10;99.90;;;;;;4989823;28;20066;-79
2022/01/23 07:34:21;;;;;;;8.63;6.32;;;4.10;99.90;;;;;;4989970;28;20429;-81
2022/01/23 07:36:47;;;;;;;11.30;6.88;;;4.10;99.90;;;;;;4990089;28;20069;-79
2022/01/23 07:39:13;;;;;;;11.35;7.35;;;4.10;99.90;;;;;;4992010;28;20045;-81
2022/01/23 07:41:38;;;;;;;12.90;7.40;;;4.10;99.90;;;;;;4992210;28;20054;-79
2022/01/23 07:44:04;;;;;;;10.27;6.38;;;4.10;99.90;;;;;;4993198;28;20449;-78
2022/01/23 07:46:30;;;;;;;9.80;6.65;;;4.10;99.90;;;;;;4996563;28;20034;-78
2022/01/23 07:48:56;;;;;;;9.75;7.18;;;4.10;99.90;;;;;;4985443;28;20592;-78
2022/01/23 07:51:21;;;;;;;10.20;7.22;;;4.10;99.90;;;;;;4994048;28;20042;-76
2022/01/23 07:53:47;;;;;;;12.63;7.90;;;4.10;99.90;;;;;;4994965;28;20037;-76
2022/01/23 07:56:13;;;;;;;10.20;7.25;;;4.20;99.90;;;;;;4989981;28;20504;-75
2022/01/23 07:58:38;;;;;;;10.45;6.97;;;4.10;99.90;;;;;;4974210;28;20293;-78
2022/01/23 08:01:04;;;;;;;11.93;7.55;;;4.20;99.90;;;;;;4976418;28;20053;-75
2022/01/23 08:03:30;;;;;;;11.40;7.50;;;4.30;99.90;;;;;;4977316;28;20053;-75
2022/01/23 08:05:55;;;;;;;11.57;8.25;;;4.30;99.90;;;;;;4982644;28;20258;-74
2022/01/23 08:08:21;;;;;;;15.02;8.10;;;4.30;99.90;;;;;;4981377;28;20130;-74
2022/01/23 08:10:46;;;;;;;12.13;7.90;;;4.30;99.90;;;;;;4975408;28;20045;-75
2022/01/23 08:13:12;;;;;;;13.82;8.20;;;4.30;99.90;;;;;;4978942;28;20109;-75
2022/01/23 08:15:38;;;;;;;12.23;8.30;;;4.30;99.90;;;;;;4978600;28;20483;-74
2022/01/23 08:18:05;;;;;;;11.88;8.25;;;4.30;99.90;;;;;;4979938;28;20499;-73
2022/01/23 08:20:33;;;;;;;13.80;8.35;;;4.30;99.90;;;;;;4979609;28;20110;-74
2022/01/23 08:23:01;;;;;;;12.10;8.65;;;4.30;99.90;;;;;;4983159;28;20041;-74
2022/01/23 08:25:26;;;;;;;14.93;9.05;;;4.30;99.90;;;;;;4975899;28;20093;-76
2022/01/23 08:27:52;;;;;;;11.77;8.63;;;4.40;99.90;;;;;;4971324;28;20030;-75
2022/01/23 08:30:18;;;;;;;11.50;8.18;;;4.40;99.90;;;;;;4986547;28;20061;-79
2022/01/23 08:32:43;;;;;;;13.43;8.52;;;4.40;99.90;;;;;;4981008;28;20031;-75
2022/01/23 08:35:09;;;;;;;10.32;7.53;;;4.40;99.90;;;;;;4981242;28;20033;-74
2022/01/23 08:37:35;;;;;;;14.45;8.30;;;4.40;99.90;;;;;;4985740;28;20049;-74
2022/01/23 08:40:01;;;;;;;13.68;7.82;;;4.40;99.90;;;;;;4973639;28;20245;-75
2022/01/23 08:42:26;;;;;;;12.32;8.45;;;4.40;99.90;;;;;;4983561;28;20292;-78
2022/01/23 08:44:53;;;;;;;12.07;7.88;;;4.40;99.90;;;;;;4980750;28;20065;-80
2022/01/23 08:47:21;;;;;;;13.32;7.60;;;4.40;99.90;;;;;;4978096;28;20026;-80
2022/01/23 08:49:49;;;;;;;15.40;8.10;;;4.40;99.90;;;;;;4982444;28;20031;-74
2022/01/23 08:52:18;;;;;;;12.13;7.78;;;4.50;99.90;;;;;;4982914;28;20030;-75
2022/01/23 08:54:46;;;;;;;10.60;7.82;;;4.50;99.90;;;;;;4983841;28;20125;-77
2022/01/23 08:57:12;;;;;;;12.77;8.25;;;4.50;99.90;;;;;;4984080;28;20690;-77
2022/01/23 08:59:40;;;;;;;14.57;8.43;;;4.60;99.90;;;;;;4979143;28;20042;-80
2022/01/23 09:02:07;;;;;;;13.70;8.93;;;4.60;99.90;;;;;;4972228;28;20022;-80
2022/01/23 09:04:32;;;;;;;11.77;8.48;;;4.60;99.90;;;;;;4984489;28;20038;-79
2022/01/23 09:06:58;;;;;;;12.80;8.63;;;4.60;99.90;;;;;;4978922;28;20018;-77
2022/01/23 09:09:29;;;;;;;14.02;8.50;;;4.70;99.90;;;;;;4978348;28;20116;-77
2022/01/23 09:12:05;;;;;;;11.65;8.48;;;4.70;99.90;;;;;;4972066;28;20508;-78
2022/01/23 09:14:31;;;;;;;13.45;8.55;;;4.70;99.90;;;;;;4973068;28;20026;-76
2022/01/23 09:16:57;;;;;;;15.23;9.30;;;4.70;99.90;;;;;;4965839;28;20196;-76
2022/01/23 09:19:25;;;;;;;14.35;9.77;;;4.80;99.90;;;;;;4973829;28;20026;-75
2022/01/23 09:21:51;;;;;;;19.88;14.13;;;4.80;99.90;;;;;;4977071;28;20030;-75
2022/01/23 09:24:22;;;;;;;17.58;12.63;;;4.80;99.90;;;;;;4977628;28;20037;-76
2022/01/23 09:26:53;;;;;;;18.55;13.57;;;4.90;99.90;;;;;;4979415;28;20501;-76
2022/01/23 09:29:31;;;;;;;21.08;13.77;;;4.90;99.90;;;;;;4973842;28;20046;-76
2022/01/23 09:31:57;;;;;;;18.67;10.30;;;5.00;99.90;;;;;;4974928;28;20030;-76
2022/01/23 09:34:28;;;;;;;14.77;9.15;;;5.10;99.90;;;;;;4979712;28;20466;-76
2022/01/23 09:36:55;;;;;;;15.00;8.63;;;5.10;99.90;;;;;;4971554;28;20129;-75
2022/01/23 09:39:23;;;;;;;14.02;9.60;;;5.20;99.90;;;;;;4973648;28;20070;-75
2022/01/23 09:42:06;;;;;;;11.95;8.73;;;5.20;99.90;;;;;;4981472;28;20062;-77
2022/01/23 09:44:44;;;;;;;13.55;9.48;;;5.20;99.90;;;;;;4979398;28;20031;-76
2022/01/23 09:47:14;;;;;;;16.42;9.65;;;5.30;99.90;;;;;;4969241;28;20090;-75
2022/01/23 09:49:42;;;;;;;15.15;9.60;;;5.30;99.90;;;;;;4978392;28;20096;-75
2022/01/23 09:52:09;;;;;;;12.80;9.65;;;5.40;99.90;;;;;;4977918;28;20038;-75
2022/01/23 09:54:37;;;;;;;14.65;9.43;;;5.40;99.90;;;;;;4980093;28;20478;-76
2022/01/23 09:57:05;;;;;;;16.17;10.07;;;5.40;99.90;;;;;;4978922;28;20026;-75
2022/01/23 09:59:32;;;;;;;14.10;9.98;;;5.50;99.90;;;;;;4970625;28;20400;-75
2022/01/23 10:01:58;;;;;;;17.67;11.57;;;5.50;99.90;;;;;;4974985;28;20295;-77
2022/01/23 10:04:27;;;;;;;16.58;11.73;;;5.50;99.90;;;;;;4978868;28;20029;-75
2022/01/23 10:06:53;;;;;;;13.98;10.07;;;5.60;99.90;;;;;;4972419;28;20034;-75
2022/01/23 10:09:22;;;;;;;14.35;9.40;;;5.70;99.90;;;;;;4972041;28;20505;-75
2022/01/23 10:11:49;;;;;;;13.73;8.77;;;5.70;99.90;;;;;;4972628;28;20042;-76
2022/01/23 10:14:17;;;;;;;13.07;8.48;;;5.80;99.90;;;;;;4972474;28;20034;-76
2022/01/23 10:16:44;;;;;;;14.15;8.68;;;5.80;99.90;;;;;;4976301;28;20042;-78
2022/01/23 10:19:10;;;;;;;14.02;8.55;;;6.00;99.90;;;;;;4973325;28;20058;-76
2022/01/23 10:21:38;;;;;;;12.05;7.68;;;5.90;99.90;;;;;;4975325;28;20065;-74
2022/01/23 10:24:06;;;;;;;10.70;6.93;;;5.90;99.90;;;;;;4967758;28;20437;-79
2022/01/23 10:26:45;;;;;;;11.13;7.20;;;5.90;99.90;;;;;;4969574;28;20810;-79
2022/01/23 10:29:35;;;;;;;11.32;7.75;;;5.90;99.90;;;;;;4978623;28;20045;-79
2022/01/23 10:32:07;;;;;;;9.75;7.03;;;6.00;99.90;;;;;;4976672;28;20083;-80
2022/01/23 10:35:00;;;;;;;9.20;5.65;;;5.90;99.90;;;;;;4971181;28;20034;-80
2022/01/23 10:37:37;;;;;;;12.73;7.00;;;6.00;99.90;;;;;;4977714;28;20416;-80
2022/01/23 10:40:27;;;;;;;10.95;6.30;;;6.00;99.90;;;;;;4981158;28;20030;-80
2022/01/23 10:51:12;;;;;;;14.88;8.23;;;6.10;99.90;;;;;;4985416;28;20026;-80
2022/01/23 10:53:57;;;;;;;9.38;5.28;;;6.20;99.90;;;;;;4982688;28;20058;-80
2022/01/23 10:56:52;;;;;;;7.40;5.10;;;6.20;99.90;;;;;;4983087;28;20430;-81
2022/01/23 10:59:18;;;;;;;8.05;5.03;;;6.30;99.90;;;;;;4968116;28;20070;-82
2022/01/23 11:02:11;;;;;;;8.55;6.38;;;6.30;99.90;;;;;;4980486;28;20553;-80
2022/01/23 11:04:52;;;;;;;6.90;4.28;;;6.40;99.90;;;;;;4975881;28;20097;-79
2022/01/23 11:07:17;;;;;;;5.85;3.80;;;6.30;99.90;;;;;;4975476;28;20092;-80
2022/01/23 11:09:43;;;;;;;5.72;3.95;;;6.30;99.90;;;;;;4983533;28;20812;-82
2022/01/23 11:12:27;;;;;;;5.28;3.70;;;6.30;99.90;;;;;;4975317;28;20507;-82
2022/01/23 11:17:53;;;;;;;7.35;4.10;;;6.30;99.90;;;;;;4980331;28;20119;-84
2022/01/23 11:20:32;;;;;;;6.43;4.10;;;6.30;99.90;;;;;;4984477;28;20045;-83
2022/01/23 11:23:01;;;;;;;4.97;3.70;;;6.30;99.90;;;;;;4978847;28;20027;-80
2022/01/23 11:25:27;;;;;;;4.85;3.05;;;6.30;99.90;;;;;;4982267;28;20486;-80
2022/01/23 11:28:02;;;;;;;6.78;3.70;;;6.30;99.90;;;;;;4979129;28;20038;-79
2022/01/23 11:30:40;;;;;;;6.13;3.72;;;6.30;99.90;;;;;;4977843;28;20110;-79
2022/01/23 11:33:09;;;;;;;4.28;3.38;;;6.30;99.90;;;;;;4982531;28;20038;-82
2022/01/23 11:35:34;;;;;;;4.40;3.25;;;6.40;99.90;;;;;;4982421;28;20077;-80
2022/01/23 11:38:00;;;;;;;3.10;2.70;;;6.40;99.90;;;;;;4983357;28;20034;-80
2022/01/23 11:54:41;;;;;;;3.30;2.25;;;6.40;99.90;;;;;;4978548;28;20041;-82
2022/01/23 11:57:44;;;;;;;2.35;2.10;;;6.40;99.90;;;;;;4979167;28;20089;-83
2022/01/23 12:00:17;;;;;;;3.45;2.20;;;6.40;99.90;;;;;;4975759;28;20031;-84
2022/01/23 12:02:43;;;;;;;3.13;2.30;;;6.30;99.90;;;;;;4971915;28;20097;-83
2022/01/23 12:05:12;;;;;;;3.25;2.30;;;6.30;99.90;;;;;;4980476;28;20053;-83
2022/01/23 12:07:40;;;;;;;5.30;2.15;;;6.30;99.90;;;;;;4980842;28;20541;-80
2022/01/23 12:10:11;;;;;;;3.08;2.20;;;6.30;99.90;;;;;;4989872;28;20054;-82
2022/01/23 12:12:43;;;;;;;2.40;2.13;;;6.30;99.90;;;;;;4984275;28;20038;-82
2022/01/23 12:18:25;;;;;;;2.85;1.80;;;6.30;99.90;;;;;;4979551;28;20097;-81
2022/01/23 12:20:52;;;;;;;3.33;2.08;;;6.30;99.90;;;;;;4975541;28;20753;-80
2022/01/23 12:23:19;;;;;;;2.78;1.90;;;6.30;99.90;;;;;;4981119;28;20030;-80
2022/01/23 12:25:47;;;;;;;2.83;2.08;;;6.30;99.90;;;;;;4979310;28;20561;-79
2022/01/23 12:28:17;;;;;;;3.00;2.10;;;6.30;99.90;;;;;;4981379;28;20207;-80
2022/01/23 12:30:44;;;;;;;3.75;2.30;;;6.30;99.90;;;;;;4975331;28;20041;-79
2022/01/23 12:33:13;;;;;;;2.97;2.13;;;6.30;99.90;;;;;;4980637;28;20035;-80
2022/01/23 12:35:40;;;;;;;2.70;2.00;;;6.30;99.90;;;;;;4979560;28;20561;-80
2022/01/23 12:38:09;;;;;;;2.60;2.00;;;6.30;99.90;;;;;;4977691;28;20691;-80
2022/01/23 12:40:43;;;;;;;2.33;1.63;;;6.30;99.90;;;;;;4986736;28;20026;-81
2022/01/23 12:43:18;;;;;;;2.35;1.88;;;6.40;99.90;;;;;;4979891;28;20177;-81
2022/01/23 12:46:04;;;;;;;3.05;1.90;;;6.40;99.90;;;;;;4980857;28;20022;-80
2022/01/23 12:48:36;;;;;;;3.95;1.60;;;6.50;99.90;;;;;;4979824;28;20061;-79
2022/01/23 12:51:12;;;;;;;2.72;1.40;;;6.50;99.90;;;;;;4976707;28;20109;-79
2022/01/23 12:53:47;;;;;;;2.45;1.42;;;6.50;99.90;;;;;;4974329;28;20149;-79
2022/01/23 12:56:19;;;;;;;3.83;2.40;;;6.60;99.90;;;;;;4979936;28;20577;-81
2022/01/23 12:58:53;;;;;;;2.20;1.80;;;6.60;99.90;;;;;;4979757;28;20101;-80
2022/01/23 13:01:24;;;;;;;6.20;2.08;;;6.60;99.90;;;;;;4984146;28;20030;-80
2022/01/23 13:03:51;;;;;;;2.50;2.03;;;6.60;99.90;;;;;;4982503;28;20143;-80
2022/01/23 13:06:17;;;;;;;3.03;2.38;;;6.60;99.90;;;;;;4634182;28;10000544;-80
2022/01/23 13:08:51;;;;;;;4.32;2.10;;;;;;;;;;4979975;28;20033;-80
2022/01/23 13:12:05;;;;;;;1.83;1.40;;;6.80;99.90;;;;;;4986453;28;20101;-80
2022/01/23 13:14:06;;;;;;;1.67;1.40;;;6.80;99.90;;;;;;4962618;28;20039;-80
2022/01/23 13:16:58;;;;;;;3.30;1.63;;;6.90;99.90;;;;;;4982805;28;20042;-80
2022/01/23 13:19:58;;;;;;;1.60;1.38;;;6.90;99.90;;;;;;4981710;28;20479;-80
2022/01/23 13:28:52;;;;;;;4.18;2.13;;;6.80;99.90;;;;;;4974565;28;20093;-80
2022/01/23 13:30:52;;;;;;;2.08;1.50;;;6.70;99.90;;;;;;4976960;28;20117;-80
2022/01/23 13:33:22;;;;;;;2.20;1.42;;;6.70;99.90;;;;;;4985111;28;20514;-80
2022/01/23 13:35:53;;;;;;;3.70;1.88;;;6.70;99.90;;;;;;4985376;28;20109;-80
2022/01/23 13:38:21;;;;;;;3.13;2.22;;;6.60;99.90;;;;;;4984110;28;20030;-80
2022/01/23 13:40:57;;;;;;;3.33;2.15;;;6.60;99.90;;;;;;4987047;28;20489;-80
2022/01/23 14:02:28;;;;;;;1.92;1.30;;;6.60;99.90;;;;;;4977997;28;20538;-80
2022/01/23 14:04:56;;;;;;;;;;;6.60;99.90;;;;;;4966250;28;20165;-80
2022/01/23 14:07:24;;;;;;;1.92;1.50;;;6.60;99.90;;;;;;4990518;28;19921;-80
2022/01/23 14:09:51;;;;;;;1.55;1.30;;;6.50;99.90;;;;;;4988482;28;20606;-81
2022/01/23 14:12:19;;;;;;;2.90;1.65;;;6.60;99.90;;;;;;4975496;28;20042;-80
2022/01/23 14:15:05;;;;;;;1.77;1.10;;;6.60;99.90;;;;;;4971525;28;20441;-80
2022/01/23 14:17:36;;;;;;;3.05;1.40;;;6.60;99.90;;;;;;4990271;28;20030;-80
2022/01/23 14:20:16;;;;;;;1.38;1.00;;;6.60;99.90;;;;;;4989552;28;20548;-81
2022/01/23 14:22:44;;;;;;;0.90;0.82;;;6.60;99.90;;;;;;4981270;28;20034;-80
2022/01/23 14:25:11;;;;;;;4.95;1.55;;;6.60;99.90;;;;;;4990244;28;20033;-80
2022/01/23 14:27:38;;;;;;;2.08;1.35;;;6.60;99.90;;;;;;4987991;28;20018;-81
2022/01/23 14:30:07;;;;;;;2.40;1.15;;;6.60;99.90;;;;;;4982935;28;20058;-80
2022/01/23 14:32:49;;;;;;;1.95;1.10;;;6.50;99.90;;;;;;4977877;28;20046;-81
2022/01/23 14:35:16;;;;;;;1.73;1.30;;;6.50;99.90;;;;;;4971158;28;20743;-80
2022/01/23 14:37:44;;;;;;;3.60;2.60;;;6.50;99.90;;;;;;4988712;28;20082;-80
2022/01/23 14:40:20;;;;;;;3.45;1.50;;;6.50;99.90;;;;;;4986356;28;20066;-80
2022/01/23 14:43:04;;;;;;;2.88;2.10;;;6.50;99.90;;;;;;4986617;28;20438;-80
2022/01/23 14:45:36;;;;;;;3.90;2.50;;;6.40;99.90;;;;;;4987676;28;20018;-82
2022/01/23 14:48:03;;;;;;;4.18;2.50;;;6.50;99.90;;;;;;4989737;28;20114;-81
2022/01/23 14:50:33;;;;;;;2.15;1.73;;;6.50;99.90;;;;;;4990107;28;20072;-80
2022/01/23 14:53:09;;;;;;;2.60;2.08;;;6.40;99.90;;;;;;4979900;28;20022;-80
2022/01/23 14:55:36;;;;;;;4.78;2.45;;;6.50;99.90;;;;;;4988227;28;20069;-80
2022/01/23 14:58:03;;;;;;;30.98;17.52;;;6.40;99.90;;;;;;4989657;28;20026;-80
2022/01/23 15:00:33;;;;;;;19.45;11.45;;;6.40;99.90;;;;;;4987219;28;20033;-80
2022/01/23 15:03:04;;;;;;;10.40;5.40;;;6.40;99.90;;;;;;4984271;28;20441;-80
2022/01/23 15:05:34;;;;;;;6.97;3.80;;;6.40;99.90;;;;;;4989174;28;20505;-81
2022/01/23 15:08:01;;;;;;;5.35;3.45;;;6.40;99.90;;;;;;4985623;28;20483;-80
2022/01/23 15:10:28;;;;;;;4.72;2.67;;;6.30;99.90;;;;;;4987794;28;20029;-80
2022/01/23 15:12:53;;;;;;;3.00;1.80;;;6.40;99.90;;;;;;4973267;28;20026;-80
2022/01/23 15:15:19;;;;;;;3.38;2.17;;;6.30;99.90;;;;;;4977464;28;20117;-80
2022/01/23 15:17:45;;;;;;;4.30;3.03;;;6.30;99.90;;;;;;4988934;28;20487;-80
2022/01/23 15:20:11;;;;;;;3.30;2.47;;;6.20;99.90;;;;;;4974262;28;20491;-80
2022/01/23 15:22:36;;;;;;;2.17;1.70;;;6.20;99.90;;;;;;4979504;28;20034;-80
2022/01/23 15:25:06;;;;;;;3.40;2.30;;;6.20;99.90;;;;;;4981294;28;20027;-81
2022/01/23 15:27:32;;;;;;;3.35;2.28;;;6.20;99.90;;;;;;4982066;28;20271;-80
2022/01/23 15:29:58;;;;;;;3.92;1.50;;;6.20;99.90;;;;;;4988610;28;20151;-81
2022/01/23 15:32:25;;;;;;;2.47;1.55;;;6.20;99.90;;;;;;4991489;28;20026;-81
2022/01/23 15:34:52;;;;;;;2.80;1.83;;;6.20;99.90;;;;;;4987746;28;20105;-80
2022/01/23 15:37:18;;;;;;;3.50;1.80;;;6.20;99.90;;;;;;4976878;28;20114;-80
2022/01/23 15:39:45;;;;;;;2.20;1.73;;;6.20;99.90;;;;;;4970037;28;20030;-80
2022/01/23 15:42:11;;;;;;;1.95;1.50;;;6.10;99.90;;;;;;4973647;28;20145;-80
2022/01/23 15:44:37;;;;;;;2.25;1.50;;;6.10;99.90;;;;;;4971014;28;20503;-80
2022/01/23 15:47:04;;;;;;;2.17;1.58;;;6.10;99.90;;;;;;4986502;28;20034;-80
2022/01/23 15:49:30;;;;;;;2.83;1.80;;;6.10;99.90;;;;;;4989004;28;20034;-80
2022/01/23 15:51:56;;;;;;;2.92;2.13;;;6.10;99.90;;;;;;4985365;28;20099;-80
2022/01/23 15:54:22;;;;;;;2.70;2.00;;;6.10;99.90;;;;;;4982660;28;20101;-80
2022/01/23 15:56:50;;;;;;;3.15;2.10;;;6.10;99.90;;;;;;4986800;28;20042;-80
2022/01/23 15:59:17;;;;;;;2.75;2.08;;;6.00;99.90;;;;;;4988193;28;20030;-80
2022/01/23 16:01:46;;;;;;;2.70;1.90;;;6.00;99.90;;;;;;4979396;28;20058;-81
2022/01/23 16:04:19;;;;;;;1.90;1.45;;;6.00;99.90;;;;;;4987545;28;20030;-80
2022/01/23 16:06:46;;;;;;;2.28;1.20;;;6.00;99.90;;;;;;4988685;28;20034;-80
2022/01/23 16:09:12;;;;;;;2.88;1.17;;;6.00;99.90;;;;;;4985363;28;20444;-80
2022/01/23 16:11:38;;;;;;;3.25;1.15;;;6.00;99.90;;;;;;4983492;28;20490;-80
2022/01/23 16:14:04;;;;;;;2.22;1.40;;;6.10;99.90;;;;;;4980753;28;20035;-81
2022/01/23 16:16:30;;;;;;;1.30;1.10;;;6.10;99.90;;;;;;4972856;28;20041;-80
2022/01/23 16:18:56;;;;;;;1.00;0.90;;;6.10;99.90;;;;;;4988425;28;20027;-81
2022/01/23 16:21:23;;;;;;;1.38;1.00;;;6.00;99.90;;;;;;4986145;28;20088;-80
2022/01/23 16:23:49;;;;;;;1.65;1.30;;;6.00;99.90;;;;;;4988364;28;20482;-80
2022/01/23 16:26:17;;;;;;;1.73;1.15;;;6.00;99.90;;;;;;4982775;28;20088;-81
2022/01/23 16:28:47;;;;;;;3.33;1.27;;;6.00;99.90;;;;;;4973004;28;20050;-80
2022/01/23 16:31:13;;;;;;;1.98;1.15;;;5.90;99.90;;;;;;4980119;28;20504;-80
2022/01/23 16:33:39;;;;;;;1.58;1.00;;;5.90;99.90;;;;;;4979441;28;20495;-80